createdAt,value
2018-12-22T00:00:45.762Z,9.80
2018-12-22T00:03:14.866Z,11.80
2018-12-22T00:05:44.742Z,7.73
2018-12-22T00:08:13.877Z,10.27
2018-12-22T00:10:43.251Z,9.50
2018-12-22T00:13:12.400Z,9.30
2018-12-22T00:15:41.534Z,16.20
2018-12-22T00:18:11.784Z,7.10
2018-12-22T00:20:40.967Z,13.70
2018-12-22T00:23:10.520Z,11.63
2018-12-22T00:25:39.484Z,12.77
2018-12-22T00:28:08.473Z,9.67
2018-12-22T00:30:37.936Z,9.40
2018-12-22T00:33:07.043Z,12.50
2018-12-22T00:35:36.116Z,12.10
2018-12-22T00:38:05.374Z,9.60
2018-12-22T00:40:34.319Z,11.30
2018-12-22T00:43:03.521Z,12.13
2018-12-22T00:45:32.749Z,9.10
2018-12-22T00:48:02.230Z,11.70
2018-12-22T00:50:32.577Z,9.60
2018-12-22T00:53:01.812Z,14.60
2018-12-22T00:55:31.528Z,13.13
2018-12-22T00:58:00.963Z,13.93
2018-12-22T01:00:30.120Z,12.27
2018-12-22T01:02:59.136Z,9.80
2018-12-22T01:05:28.246Z,10.73
2018-12-22T01:07:57.303Z,11.50
2018-12-22T01:10:26.421Z,12.00
2018-12-22T01:12:55.784Z,10.50
2018-12-22T01:15:24.812Z,11.87
2018-12-22T01:17:53.818Z,10.20
2018-12-22T01:20:23.152Z,12.07
2018-12-22T01:22:52.209Z,12.13
2018-12-22T01:25:21.299Z,11.27
2018-12-22T01:27:50.544Z,11.60
2018-12-22T01:30:20.058Z,8.77
2018-12-22T01:32:49.339Z,9.67
2018-12-22T01:35:18.568Z,15.00
2018-12-22T01:37:47.737Z,15.47
2018-12-22T01:40:17.191Z,13.80
2018-12-22T01:42:46.608Z,12.10
2018-12-22T01:45:15.946Z,10.80
2018-12-22T01:47:45.369Z,12.13
2018-12-22T01:50:14.561Z,11.87
2018-12-22T01:52:43.595Z,12.70
2018-12-22T01:55:12.813Z,11.37
2018-12-22T01:57:42.459Z,9.03
2018-12-22T02:00:11.952Z,9.50
2018-12-22T02:02:41.032Z,14.30
2018-12-22T02:05:10.305Z,10.80
2018-12-22T02:07:39.398Z,9.70
2018-12-22T02:10:08.558Z,13.53
2018-12-22T02:12:37.730Z,11.13
2018-12-22T02:15:06.821Z,9.70
2018-12-22T02:17:35.968Z,9.43
2018-12-22T02:20:06.412Z,12.77
2018-12-22T02:22:35.751Z,12.67
2018-12-22T02:25:05.209Z,8.07
2018-12-22T02:27:34.249Z,10.03
2018-12-22T02:30:04.380Z,9.30
2018-12-22T02:32:33.530Z,10.83
2018-12-22T02:35:02.869Z,9.90
2018-12-22T02:37:31.886Z,11.93
2018-12-22T02:40:01.661Z,5.97
2018-12-22T02:42:31.036Z,9.90
2018-12-22T02:45:00.269Z,8.10
2018-12-22T02:47:29.757Z,13.70
2018-12-22T02:49:58.867Z,10.33
2018-12-22T02:52:27.971Z,7.90
2018-12-22T02:54:57.062Z,10.43
2018-12-22T02:57:26.612Z,11.00
2018-12-22T02:59:55.608Z,12.20
2018-12-22T03:02:24.767Z,11.00
2018-12-22T03:04:53.820Z,11.40
2018-12-22T03:07:23.151Z,9.23
2018-12-22T03:09:52.444Z,15.47
2018-12-22T03:12:21.516Z,7.73
2018-12-22T03:14:51.443Z,16.03
2018-12-22T03:17:20.432Z,11.67
2018-12-22T03:19:50.480Z,16.40
2018-12-22T03:22:19.715Z,9.40
2018-12-22T03:24:49.037Z,14.67
2018-12-22T03:27:18.145Z,11.97
2018-12-22T03:29:47.129Z,11.23
2018-12-22T03:32:16.204Z,12.50
2018-12-22T03:34:45.272Z,10.83
2018-12-22T03:37:15.580Z,9.00
2018-12-22T03:39:44.521Z,9.23
2018-12-22T03:42:13.713Z,10.23
2018-12-22T03:44:49.231Z,16.30
2018-12-22T03:47:19.220Z,10.33
2018-12-22T03:49:48.165Z,10.57
2018-12-22T03:52:17.286Z,13.87
2018-12-22T03:54:46.386Z,9.13
2018-12-22T03:57:15.473Z,12.43
2018-12-22T03:59:44.572Z,17.70
2018-12-22T04:02:14.323Z,17.37
2018-12-22T04:04:43.599Z,15.47
2018-12-22T04:07:12.929Z,11.33
2018-12-22T04:09:41.964Z,14.10
2018-12-22T04:12:10.932Z,13.00
2018-12-22T04:14:40.216Z,16.83
2018-12-22T04:17:10.425Z,14.00
2018-12-22T04:19:39.818Z,12.93
2018-12-22T04:22:08.813Z,14.17
2018-12-22T04:24:37.779Z,12.77
2018-12-22T04:27:06.734Z,14.43
2018-12-22T04:29:35.757Z,14.60
2018-12-22T04:32:04.821Z,13.10
2018-12-22T04:34:34.297Z,12.80
2018-12-22T04:37:03.541Z,11.70
2018-12-22T04:39:32.814Z,11.90
2018-12-22T04:42:02.322Z,12.57
2018-12-22T04:44:31.466Z,16.57
2018-12-22T04:47:00.904Z,10.73
2018-12-22T04:49:30.184Z,12.70
2018-12-22T04:51:59.542Z,15.33
2018-12-22T04:54:29.413Z,18.27
2018-12-22T04:56:58.717Z,13.73
2018-12-22T04:59:27.918Z,10.80
2018-12-22T05:01:56.998Z,10.60
2018-12-22T05:04:26.296Z,15.83
2018-12-22T05:06:55.493Z,15.10
2018-12-22T05:09:24.742Z,14.17
2018-12-22T05:11:54.290Z,12.83
2018-12-22T05:14:23.438Z,15.20
2018-12-22T05:16:59.488Z,12.13
2018-12-22T05:19:28.665Z,16.57
2018-12-22T05:21:57.801Z,14.50
2018-12-22T05:24:26.950Z,9.33
2018-12-22T05:26:56.179Z,15.93
2018-12-22T05:29:25.186Z,9.97
2018-12-22T05:31:54.741Z,10.67
2018-12-22T05:34:24.421Z,11.73
2018-12-22T05:36:53.572Z,9.17
2018-12-22T05:39:22.643Z,9.40
2018-12-22T05:41:51.762Z,9.23
2018-12-22T05:44:20.739Z,6.37
2018-12-22T05:46:49.762Z,10.70
2018-12-22T05:49:18.730Z,7.70
2018-12-22T05:51:47.790Z,8.23
2018-12-22T05:54:17.518Z,12.13
2018-12-22T05:56:46.596Z,10.80
2018-12-22T05:59:16.998Z,12.00
2018-12-22T06:01:46.259Z,8.67
2018-12-22T06:04:15.837Z,8.67
2018-12-22T06:06:44.905Z,8.17
2018-12-22T06:09:14.008Z,14.60
2018-12-22T06:11:43.425Z,11.30
2018-12-22T06:14:12.386Z,10.70
2018-12-22T06:16:41.432Z,10.93
2018-12-22T06:19:10.510Z,10.63
2018-12-22T06:21:39.791Z,10.37
2018-12-22T06:24:08.822Z,10.27
2018-12-22T06:26:38.167Z,7.37
2018-12-22T06:29:07.247Z,9.33
2018-12-22T06:31:36.457Z,10.87
2018-12-22T06:34:05.581Z,12.10
2018-12-22T06:36:34.677Z,10.47
2018-12-22T06:39:04.917Z,9.20
2018-12-22T06:41:34.052Z,7.03
2018-12-22T06:44:03.091Z,9.73
2018-12-22T06:46:32.107Z,9.00
2018-12-22T06:49:01.157Z,9.67
2018-12-22T06:51:30.305Z,9.77
2018-12-22T06:53:59.639Z,11.53
2018-12-22T06:56:29.109Z,9.30
2018-12-22T06:58:58.658Z,9.40
2018-12-22T07:01:28.032Z,11.43
2018-12-22T07:03:56.973Z,8.47
2018-12-22T07:06:26.604Z,10.60
2018-12-22T07:08:55.724Z,8.73
2018-12-22T07:11:24.950Z,10.00
2018-12-22T07:13:54.022Z,8.83
2018-12-22T07:16:23.111Z,7.57
2018-12-22T07:18:52.566Z,7.07
2018-12-22T07:21:21.643Z,4.93
2018-12-22T07:23:50.843Z,8.40
2018-12-22T07:26:20.120Z,5.57
2018-12-22T07:28:49.572Z,8.77
2018-12-22T07:31:18.794Z,6.27
2018-12-22T07:33:48.030Z,6.67
2018-12-22T07:36:17.292Z,5.10
2018-12-22T07:38:46.926Z,6.40
2018-12-22T07:41:16.196Z,7.77
2018-12-22T07:43:46.126Z,8.03
2018-12-22T07:46:15.532Z,6.93
2018-12-22T07:48:44.801Z,4.90
2018-12-22T07:51:14.150Z,6.03
2018-12-22T07:53:43.441Z,5.97
2018-12-22T07:56:12.838Z,6.80
2018-12-22T07:58:42.033Z,6.00
2018-12-22T08:01:11.327Z,5.47
2018-12-22T08:03:40.650Z,8.33
2018-12-22T08:06:09.812Z,5.33
2018-12-22T08:08:39.182Z,6.10
2018-12-22T08:11:08.529Z,6.83
2018-12-22T08:13:37.612Z,8.57
2018-12-22T08:16:06.785Z,6.13
2018-12-22T08:18:36.140Z,4.53
2018-12-22T08:21:05.380Z,3.97
2018-12-22T08:23:34.603Z,7.73
2018-12-22T08:26:10.857Z,5.10
2018-12-22T08:28:40.007Z,5.67
2018-12-22T08:31:10.531Z,5.00
2018-12-22T08:33:39.634Z,3.23
2018-12-22T08:36:08.751Z,4.47
2018-12-22T08:38:38.050Z,2.40
2018-12-22T08:41:07.335Z,2.13
2018-12-22T08:43:36.529Z,1.90
2018-12-22T08:46:06.158Z,1.97
2018-12-22T08:48:35.587Z,2.10
2018-12-22T08:51:04.873Z,1.50
2018-12-22T08:53:34.210Z,1.87
2018-12-22T08:56:03.463Z,2.03
2018-12-22T08:58:32.627Z,1.97
2018-12-22T09:01:01.915Z,1.50
2018-12-22T09:03:30.949Z,1.13
2018-12-22T09:06:00.601Z,1.60
2018-12-22T09:08:29.673Z,0.90
2018-12-22T09:10:58.740Z,0.80
2018-12-22T09:13:27.819Z,1.30
2018-12-22T09:15:57.185Z,1.70
2018-12-22T09:18:27.103Z,0.97
2018-12-22T09:20:56.351Z,2.00
2018-12-22T09:23:28.618Z,1.33
2018-12-22T09:25:57.928Z,1.60
2018-12-22T09:28:27.125Z,1.30
2018-12-22T09:31:00.716Z,1.50
2018-12-22T09:33:27.116Z,2.43
2018-12-22T09:35:56.133Z,1.30
2018-12-22T09:38:25.137Z,1.50
2018-12-22T09:40:54.284Z,2.33
2018-12-22T09:43:23.579Z,1.20
2018-12-22T09:45:53.051Z,1.47
2018-12-22T09:48:22.134Z,2.60
2018-12-22T09:50:52.032Z,3.90
2018-12-22T09:53:21.271Z,2.70
2018-12-22T09:55:50.299Z,1.73
2018-12-22T09:58:19.812Z,1.70
2018-12-22T10:00:48.969Z,3.37
2018-12-22T10:03:18.182Z,2.60
2018-12-22T10:05:47.830Z,3.07
2018-12-22T10:08:17.071Z,3.07
2018-12-22T10:10:46.365Z,2.57
2018-12-22T10:13:15.423Z,3.93
2018-12-22T10:15:44.463Z,2.60
2018-12-22T10:18:13.438Z,1.87
2018-12-22T10:20:42.378Z,2.47
2018-12-22T10:23:11.516Z,3.97
2018-12-22T10:25:40.549Z,2.27
2018-12-22T10:28:09.528Z,1.77
2018-12-22T10:30:40.054Z,2.00
2018-12-22T10:33:10.696Z,3.40
2018-12-22T10:35:39.994Z,2.33
2018-12-22T10:38:09.044Z,2.27
2018-12-22T10:40:38.049Z,3.53
2018-12-22T10:43:07.017Z,2.10
2018-12-22T10:45:36.892Z,3.27
2018-12-22T10:48:06.092Z,2.47
2018-12-22T10:50:35.257Z,2.53
2018-12-22T10:53:04.486Z,2.30
2018-12-22T10:55:33.742Z,2.23
2018-12-22T10:58:02.827Z,2.30
2018-12-22T11:00:32.038Z,1.70
2018-12-22T11:03:01.394Z,2.63
2018-12-22T11:05:30.569Z,2.07
2018-12-22T11:07:59.756Z,3.10
2018-12-22T11:10:29.376Z,2.40
2018-12-22T11:13:00.648Z,2.77
2018-12-22T11:15:30.056Z,3.40
2018-12-22T11:17:59.334Z,2.77
2018-12-22T11:20:29.659Z,3.57
2018-12-22T11:22:59.137Z,2.00
2018-12-22T11:25:28.305Z,3.10
2018-12-22T11:27:57.503Z,2.63
2018-12-22T11:30:44.006Z,3.40
2018-12-22T11:33:13.207Z,2.63
2018-12-22T11:35:42.325Z,2.00
2018-12-22T11:38:11.573Z,3.87
2018-12-22T11:40:40.897Z,2.17
2018-12-22T11:43:10.230Z,4.13
2018-12-22T11:45:39.909Z,1.80
2018-12-22T11:48:23.556Z,4.60
2018-12-22T11:50:52.786Z,4.03
2018-12-22T11:53:21.945Z,3.87
2018-12-22T11:55:52.715Z,6.13
2018-12-22T11:58:21.985Z,4.53
2018-12-22T12:00:51.374Z,3.63
2018-12-22T12:03:20.588Z,2.90
2018-12-22T12:05:49.656Z,5.60
2018-12-22T12:08:19.655Z,2.80
2018-12-22T12:10:48.919Z,3.90
2018-12-22T12:13:18.524Z,2.63
2018-12-22T12:15:51.910Z,2.63
2018-12-22T12:19:32.559Z,4.10
2018-12-22T12:22:01.746Z,2.00
2018-12-22T12:24:30.915Z,2.60
2018-12-22T12:27:00.257Z,4.43
2018-12-22T12:29:29.716Z,2.23
2018-12-22T12:31:59.130Z,2.80
2018-12-22T12:34:28.569Z,2.27
2018-12-22T12:36:57.928Z,2.70
2018-12-22T12:39:27.278Z,3.40
2018-12-22T12:41:57.038Z,2.60
2018-12-22T12:44:26.414Z,3.30
2018-12-22T12:46:57.503Z,3.27
2018-12-22T12:49:26.879Z,4.07
2018-12-22T12:51:56.120Z,2.93
2018-12-22T12:54:25.496Z,1.57
2018-12-22T12:56:57.539Z,2.30
2018-12-22T12:59:28.765Z,2.43
2018-12-22T13:02:01.390Z,6.27
2018-12-22T13:04:29.894Z,1.97
2018-12-22T13:06:59.698Z,3.60
2018-12-22T13:09:29.065Z,5.03
2018-12-22T13:12:05.693Z,3.33
2018-12-22T13:14:35.640Z,5.30
2018-12-22T13:17:05.601Z,4.60
2018-12-22T13:19:35.026Z,3.00
2018-12-22T13:22:04.598Z,5.93
2018-12-22T13:24:34.618Z,3.23
2018-12-22T13:27:03.851Z,2.53
2018-12-22T13:29:33.107Z,2.63
2018-12-22T13:32:09.591Z,4.90
2018-12-22T13:34:33.972Z,3.63
2018-12-22T13:37:03.259Z,3.07
2018-12-22T13:39:32.395Z,3.10
2018-12-22T13:42:01.554Z,1.97
2018-12-22T13:44:30.962Z,2.17
2018-12-22T13:47:00.163Z,1.47
2018-12-22T13:49:29.323Z,4.43
2018-12-22T13:51:58.943Z,3.90
2018-12-22T13:54:28.012Z,1.60
2018-12-22T13:56:57.203Z,2.57
2018-12-22T13:59:26.627Z,3.63
2018-12-22T14:02:01.085Z,2.50
2018-12-22T14:04:32.069Z,4.30
2018-12-22T14:07:01.722Z,4.20
2018-12-22T14:09:31.862Z,2.40
2018-12-22T14:12:01.071Z,2.70
2018-12-22T14:14:34.022Z,5.90
2018-12-22T14:17:13.342Z,3.57
2018-12-22T14:19:47.605Z,4.57
2018-12-22T14:22:16.669Z,2.30
2018-12-22T14:24:50.005Z,3.27
2018-12-22T14:27:19.354Z,2.83
2018-12-22T14:29:48.871Z,4.03
2018-12-22T14:32:26.696Z,1.67
2018-12-22T14:35:00.435Z,3.67
2018-12-22T14:37:29.510Z,3.07
2018-12-22T14:40:00.766Z,4.00
2018-12-22T14:42:30.201Z,1.80
2018-12-22T14:44:59.639Z,2.50
2018-12-22T14:47:28.981Z,2.23
2018-12-22T14:49:58.922Z,2.20
2018-12-22T14:52:28.005Z,2.73
2018-12-22T14:54:57.214Z,3.80
2018-12-22T14:57:28.168Z,2.90
2018-12-22T14:59:57.301Z,4.07
2018-12-22T15:02:26.465Z,2.87
2018-12-22T15:04:55.535Z,3.70
2018-12-22T15:07:25.084Z,4.70
2018-12-22T15:09:54.520Z,3.63
2018-12-22T15:12:24.044Z,3.80
2018-12-22T15:14:53.126Z,3.57
2018-12-22T15:17:22.526Z,6.53
2018-12-22T15:19:51.647Z,5.07
2018-12-22T15:22:21.249Z,2.63
2018-12-22T15:24:50.436Z,2.93
2018-12-22T15:27:19.801Z,2.53
2018-12-22T15:29:49.129Z,3.10
2018-12-22T15:32:18.422Z,5.63
2018-12-22T15:34:47.534Z,3.97
2018-12-22T15:37:16.873Z,5.00
2018-12-22T15:39:45.954Z,3.67
2018-12-22T15:42:15.066Z,5.07
2018-12-22T15:44:44.181Z,4.43
2018-12-22T15:47:13.146Z,5.50
2018-12-22T15:49:42.232Z,7.03
2018-12-22T15:52:11.371Z,8.43
2018-12-22T15:54:40.661Z,7.60
2018-12-22T15:57:09.656Z,6.70
2018-12-22T15:59:38.984Z,6.70
2018-12-22T16:02:08.202Z,6.97
2018-12-22T16:04:37.585Z,4.23
2018-12-22T16:07:06.733Z,5.50
2018-12-22T16:09:35.920Z,6.47
2018-12-22T16:12:04.901Z,5.97
2018-12-22T16:14:34.005Z,4.27
2018-12-22T16:17:03.111Z,8.47
2018-12-22T16:19:32.165Z,9.43
2018-12-22T16:22:01.409Z,8.50
2018-12-22T16:24:30.554Z,7.20
2018-12-22T16:26:59.747Z,8.30
2018-12-22T16:29:32.886Z,9.90
2018-12-22T16:32:02.123Z,5.53
2018-12-22T16:34:32.807Z,6.50
2018-12-22T16:37:02.174Z,6.57
2018-12-22T16:39:31.946Z,5.60
2018-12-22T16:42:01.123Z,7.97
2018-12-22T16:44:30.160Z,14.60
2018-12-22T16:46:59.186Z,5.80
2018-12-22T16:49:28.329Z,10.40
2018-12-22T16:51:57.539Z,8.97
2018-12-22T16:54:26.628Z,6.57
2018-12-22T16:56:55.802Z,8.77
2018-12-22T16:59:26.916Z,5.90
2018-12-22T17:02:06.818Z,7.67
2018-12-22T17:04:35.852Z,7.43
2018-12-22T17:07:05.127Z,7.13
2018-12-22T17:09:34.220Z,10.87
2018-12-22T17:12:03.702Z,8.07
2018-12-22T17:14:32.861Z,8.40
2018-12-22T17:17:02.727Z,7.23
2018-12-22T17:19:32.038Z,15.23
2018-12-22T17:22:09.004Z,10.20
2018-12-22T17:25:00.332Z,8.17
2018-12-22T17:27:29.956Z,12.00
2018-12-22T17:29:58.888Z,11.83
2018-12-22T17:32:27.876Z,9.57
2018-12-22T17:34:56.876Z,11.47
2018-12-22T17:37:26.748Z,15.50
2018-12-22T17:39:56.004Z,9.57
2018-12-22T17:42:25.284Z,13.53
2018-12-22T17:44:54.494Z,10.60
2018-12-22T17:47:24.174Z,13.67
2018-12-22T17:49:53.821Z,10.37
2018-12-22T17:52:23.061Z,12.30
2018-12-22T17:54:52.178Z,13.43
2018-12-22T17:57:21.272Z,35.37
2018-12-22T17:59:51.143Z,24.70
2018-12-22T18:02:20.291Z,43.37
2018-12-22T18:04:49.282Z,22.93
2018-12-22T18:07:18.512Z,16.50
2018-12-22T18:09:47.438Z,21.83
2018-12-22T18:12:16.533Z,34.53
2018-12-22T18:14:45.575Z,25.87
2018-12-22T18:17:14.598Z,15.30
2018-12-22T18:19:44.080Z,16.33
2018-12-22T18:22:13.153Z,16.07
2018-12-22T18:24:42.628Z,23.63
2018-12-22T18:27:11.760Z,9.30
2018-12-22T18:29:40.872Z,12.53
2018-12-22T18:32:09.955Z,9.40
2018-12-22T18:34:38.965Z,9.70
2018-12-22T18:37:08.450Z,13.13
2018-12-22T18:39:37.437Z,10.40
2018-12-22T18:42:06.578Z,12.77
2018-12-22T18:44:35.712Z,14.93
2018-12-22T18:47:04.730Z,10.40
2018-12-22T18:49:34.623Z,10.27
2018-12-22T18:52:05.067Z,13.77
2018-12-22T18:54:34.054Z,13.17
2018-12-22T18:57:03.465Z,12.03
2018-12-22T18:59:32.452Z,12.87
2018-12-22T19:02:01.466Z,16.00
2018-12-22T19:04:30.620Z,17.03
2018-12-22T19:06:59.637Z,14.53
2018-12-22T19:09:31.288Z,19.73
2018-12-22T19:12:02.051Z,11.83
2018-12-22T19:14:31.447Z,11.57
2018-12-22T19:17:00.577Z,12.63
2018-12-22T19:19:29.859Z,16.20
2018-12-22T19:21:58.947Z,9.13
2018-12-22T19:24:28.113Z,9.20
2018-12-22T19:26:57.202Z,13.87
2018-12-22T19:29:26.263Z,10.20
2018-12-22T19:31:55.479Z,13.53
2018-12-22T19:34:24.464Z,10.40
2018-12-22T19:36:53.703Z,10.73
2018-12-22T19:39:22.838Z,7.20
2018-12-22T19:41:51.862Z,12.57
2018-12-22T19:44:21.163Z,9.63
2018-12-22T19:46:50.167Z,11.17
2018-12-22T19:49:19.353Z,6.40
2018-12-22T19:51:48.837Z,8.27
2018-12-22T19:54:18.777Z,10.83
2018-12-22T19:56:47.723Z,7.97
2018-12-22T19:59:17.627Z,7.93
2018-12-22T20:01:46.771Z,9.57
2018-12-22T20:04:15.989Z,11.57
2018-12-22T20:06:45.298Z,7.10
2018-12-22T20:09:14.475Z,8.63
2018-12-22T20:11:43.504Z,10.50
2018-12-22T20:14:12.561Z,12.47
2018-12-22T20:16:41.766Z,8.60
2018-12-22T20:19:10.997Z,9.40
2018-12-22T20:21:40.277Z,14.00
2018-12-22T20:24:09.379Z,12.27
2018-12-22T20:26:38.377Z,12.47
2018-12-22T20:29:07.332Z,10.03
2018-12-22T20:31:36.411Z,10.23
2018-12-22T20:34:11.047Z,8.10
2018-12-22T20:36:36.515Z,11.67
2018-12-22T20:39:06.636Z,11.70
2018-12-22T20:41:35.961Z,15.60
2018-12-22T20:44:08.549Z,9.67
2018-12-22T20:46:37.849Z,10.37
2018-12-22T20:49:07.111Z,12.63
2018-12-22T20:51:36.370Z,13.87
2018-12-22T20:54:05.792Z,7.67
2018-12-22T20:56:35.022Z,7.77
2018-12-22T20:59:04.206Z,11.20
2018-12-22T21:01:33.592Z,15.47
2018-12-22T21:04:02.678Z,15.17
2018-12-22T21:06:34.441Z,12.97
2018-12-22T21:09:05.406Z,13.70
2018-12-22T21:11:35.561Z,13.00
2018-12-22T21:14:05.062Z,11.27
2018-12-22T21:16:34.366Z,12.87
2018-12-22T21:19:04.020Z,12.03
2018-12-22T21:21:33.279Z,11.20
2018-12-22T21:24:02.574Z,13.60
2018-12-22T21:26:31.527Z,11.73
2018-12-22T21:29:00.528Z,21.73
2018-12-22T21:31:29.470Z,16.30
2018-12-22T21:34:00.002Z,16.00
2018-12-22T21:36:29.123Z,16.90
2018-12-22T21:38:59.732Z,14.57
2018-12-22T21:41:28.797Z,12.80
2018-12-22T21:43:57.950Z,17.53
2018-12-22T21:46:27.041Z,15.17
2018-12-22T21:48:56.290Z,15.10
2018-12-22T21:51:25.754Z,14.90
2018-12-22T21:53:56.252Z,15.67
2018-12-22T21:56:25.928Z,15.37
2018-12-22T21:58:55.020Z,12.23
2018-12-22T22:01:24.102Z,13.17
2018-12-22T22:03:53.456Z,13.90
2018-12-22T22:06:22.592Z,15.40
2018-12-22T22:08:52.140Z,12.43
2018-12-22T22:11:21.325Z,12.70
2018-12-22T22:13:50.471Z,14.40
2018-12-22T22:16:19.890Z,13.17
2018-12-22T22:18:49.210Z,10.03
2018-12-22T22:21:18.533Z,12.57
2018-12-22T22:23:47.675Z,14.53
2018-12-22T22:26:17.350Z,20.43
2018-12-22T22:28:46.323Z,12.33
2018-12-22T22:31:15.522Z,13.00
2018-12-22T22:33:45.349Z,11.63
2018-12-22T22:36:15.890Z,12.30
2018-12-22T22:38:45.093Z,9.60
2018-12-22T22:41:14.308Z,11.90
2018-12-22T22:43:43.284Z,10.50
2018-12-22T22:46:12.387Z,8.00
2018-12-22T22:48:41.532Z,11.57
2018-12-22T22:51:10.928Z,13.37
2018-12-22T22:53:39.971Z,9.53
2018-12-22T22:56:15.366Z,11.30
2018-12-22T22:58:44.849Z,8.83
2018-12-22T23:01:14.060Z,12.90
2018-12-22T23:03:43.453Z,12.90
2018-12-22T23:06:13.109Z,11.13
2018-12-22T23:08:42.481Z,10.63
2018-12-22T23:11:11.791Z,15.37
2018-12-22T23:13:40.905Z,9.23
2018-12-22T23:16:10.214Z,11.50
2018-12-22T23:18:39.712Z,9.33
2018-12-22T23:21:09.146Z,6.97
2018-12-22T23:23:38.849Z,9.53
2018-12-22T23:26:08.622Z,10.67
2018-12-22T23:28:37.689Z,8.07
2018-12-22T23:31:07.125Z,18.73
2018-12-22T23:33:36.570Z,16.73
2018-12-22T23:36:05.883Z,15.53
2018-12-22T23:38:35.394Z,12.37
2018-12-22T23:41:04.700Z,13.07
2018-12-22T23:43:34.411Z,15.17
2018-12-22T23:46:03.705Z,12.87
2018-12-22T23:48:33.275Z,11.07
2018-12-22T23:51:02.555Z,8.57
2018-12-22T23:53:31.525Z,12.00
2018-12-22T23:56:00.593Z,10.23
2018-12-22T23:58:30.721Z,7.93
